sensor_id;sensor_type;location;lat;lon;timestamp;pressure;altitude;pressure_sealevel;temperature;humidity
21706;BME280;11014;53.076;18.208;2023-04-08T00:01:31;101862.25;;;11.13;72.75
21706;BME280;11014;53.076;18.208;2023-04-08T00:03:59;101860.63;;;11.12;72.75
21706;BME280;11014;53.076;18.208;2023-04-08T00:06:28;101860.63;;;11.12;72.78
21706;BME280;11014;53.076;18.208;2023-04-08T00:08:56;101864.34;;;11.11;72.81
21706;BME280;11014;53.076;18.208;2023-04-08T00:11:25;101869.09;;;11.09;72.75
21706;BME280;11014;53.076;18.208;2023-04-08T00:13:53;101864.13;;;11.12;72.45
21706;BME280;11014;53.076;18.208;2023-04-08T00:16:22;101878.00;;;11.16;72.31
21706;BME280;11014;53.076;18.208;2023-04-08T00:18:51;101876.75;;;11.12;72.12
21706;BME280;11014;53.076;18.208;2023-04-08T00:21:20;101873.03;;;11.06;72.06
21706;BME280;11014;53.076;18.208;2023-04-08T00:23:48;101876.31;;;11.02;71.95
21706;BME280;11014;53.076;18.208;2023-04-08T00:26:18;101873.81;;;10.94;71.38
21706;BME280;11014;53.076;18.208;2023-04-08T00:28:47;101878.75;;;10.84;71.70
21706;BME280;11014;53.076;18.208;2023-04-08T00:31:16;101883.25;;;10.77;71.48
21706;BME280;11014;53.076;18.208;2023-04-08T00:33:45;101880.72;;;10.68;71.66
21706;BME280;11014;53.076;18.208;2023-04-08T00:36:14;101879.50;;;10.64;71.31
21706;BME280;11014;53.076;18.208;2023-04-08T00:38:42;101883.19;;;10.63;71.58
21706;BME280;11014;53.076;18.208;2023-04-08T00:41:11;101888.97;;;10.60;71.27
21706;BME280;11014;53.076;18.208;2023-04-08T00:43:40;101889.38;;;10.57;71.49
21706;BME280;11014;53.076;18.208;2023-04-08T00:46:08;101895.34;;;10.53;70.96
21706;BME280;11014;53.076;18.208;2023-04-08T00:48:37;101888.28;;;10.45;70.83
21706;BME280;11014;53.076;18.208;2023-04-08T00:51:07;101895.47;;;10.38;71.03
21706;BME280;11014;53.076;18.208;2023-04-08T00:53:35;101889.63;;;10.28;70.86
21706;BME280;11014;53.076;18.208;2023-04-08T00:56:04;101891.63;;;10.20;70.80
21706;BME280;11014;53.076;18.208;2023-04-08T00:58:33;101899.41;;;10.08;70.64
21706;BME280;11014;53.076;18.208;2023-04-08T01:02:11;101905.53;;;10.02;71.14
21706;BME280;11014;53.076;18.208;2023-04-08T01:04:32;101901.34;;;9.93;70.55
21706;BME280;11014;53.076;18.208;2023-04-08T01:07:26;101906.41;;;9.81;70.79
21706;BME280;11014;53.076;18.208;2023-04-08T01:09:56;101904.16;;;9.85;70.41
21706;BME280;11014;53.076;18.208;2023-04-08T01:12:31;101907.66;;;9.58;70.02
21706;BME280;11014;53.076;18.208;2023-04-08T01:15:07;101914.53;;;9.45;70.08
21706;BME280;11014;53.076;18.208;2023-04-08T01:17:39;101916.91;;;9.34;70.43
21706;BME280;11014;53.076;18.208;2023-04-08T01:20:08;101916.38;;;9.24;70.59
21706;BME280;11014;53.076;18.208;2023-04-08T01:25:29;101917.06;;;9.11;70.22
21706;BME280;11014;53.076;18.208;2023-04-08T01:28:00;101915.34;;;9.04;70.58
21706;BME280;11014;53.076;18.208;2023-04-08T01:30:31;101916.94;;;8.98;70.56
21706;BME280;11014;53.076;18.208;2023-04-08T01:33:01;101921.75;;;8.88;70.33
21706;BME280;11014;53.076;18.208;2023-04-08T01:35:31;101924.94;;;8.77;70.50
21706;BME280;11014;53.076;18.208;2023-04-08T01:38:02;101918.38;;;8.65;70.63
21706;BME280;11014;53.076;18.208;2023-04-08T01:40:31;101918.47;;;8.57;70.38
21706;BME280;11014;53.076;18.208;2023-04-08T01:43:07;101921.25;;;8.49;70.60
21706;BME280;11014;53.076;18.208;2023-04-08T01:45:38;101927.34;;;8.43;70.15
21706;BME280;11014;53.076;18.208;2023-04-08T01:48:07;101933.78;;;8.33;70.46
21706;BME280;11014;53.076;18.208;2023-04-08T01:50:37;101932.50;;;8.29;70.43
21706;BME280;11014;53.076;18.208;2023-04-08T01:53:08;101930.34;;;8.25;70.17
21706;BME280;11014;53.076;18.208;2023-04-08T01:55:38;101930.53;;;8.23;70.20
21706;BME280;11014;53.076;18.208;2023-04-08T01:58:11;101928.84;;;8.22;70.25
21706;BME280;11014;53.076;18.208;2023-04-08T02:00:43;101945.00;;;8.14;69.78
21706;BME280;11014;53.076;18.208;2023-04-08T02:03:16;101941.88;;;8.25;69.77
21706;BME280;11014;53.076;18.208;2023-04-08T02:05:46;101940.75;;;8.05;69.26
21706;BME280;11014;53.076;18.208;2023-04-08T02:08:15;101937.69;;;7.94;69.51
21706;BME280;11014;53.076;18.208;2023-04-08T02:10:43;101942.25;;;7.85;69.67
21706;BME280;11014;53.076;18.208;2023-04-08T02:13:11;101948.16;;;7.81;69.83
21706;BME280;11014;53.076;18.208;2023-04-08T02:15:42;101950.72;;;7.74;70.14
21706;BME280;11014;53.076;18.208;2023-04-08T02:18:16;101950.78;;;7.66;69.91
21706;BME280;11014;53.076;18.208;2023-04-08T02:20:56;101959.72;;;7.58;70.04
21706;BME280;11014;53.076;18.208;2023-04-08T02:23:28;101954.56;;;7.49;69.81
21706;BME280;11014;53.076;18.208;2023-04-08T02:26:04;101960.66;;;7.43;69.83
21706;BME280;11014;53.076;18.208;2023-04-08T02:28:35;101958.03;;;7.35;69.74
21706;BME280;11014;53.076;18.208;2023-04-08T02:31:05;101957.72;;;7.30;69.55
21706;BME280;11014;53.076;18.208;2023-04-08T02:33:37;101961.13;;;7.24;69.48
21706;BME280;11014;53.076;18.208;2023-04-08T02:36:06;101966.50;;;7.15;69.39
21706;BME280;11014;53.076;18.208;2023-04-08T02:38:36;101973.53;;;7.08;69.26
21706;BME280;11014;53.076;18.208;2023-04-08T02:41:05;101969.72;;;7.03;69.67
21706;BME280;11014;53.076;18.208;2023-04-08T02:43:33;101981.59;;;7.00;69.51
21706;BME280;11014;53.076;18.208;2023-04-08T02:46:05;101982.66;;;6.83;69.82
21706;BME280;11014;53.076;18.208;2023-04-08T02:48:36;101981.72;;;6.68;70.03
21706;BME280;11014;53.076;18.208;2023-04-08T02:51:05;101982.09;;;6.57;70.26
21706;BME280;11014;53.076;18.208;2023-04-08T02:53:33;101989.13;;;6.50;70.58
21706;BME280;11014;53.076;18.208;2023-04-08T02:56:02;101990.97;;;6.41;70.56
21706;BME280;11014;53.076;18.208;2023-04-08T02:58:31;101992.81;;;6.33;70.77
21706;BME280;11014;53.076;18.208;2023-04-08T03:00:59;101995.50;;;6.25;71.08
21706;BME280;11014;53.076;18.208;2023-04-08T03:03:28;101996.50;;;6.16;71.34
21706;BME280;11014;53.076;18.208;2023-04-08T03:05:58;101990.66;;;6.12;71.10
21706;BME280;11014;53.076;18.208;2023-04-08T03:08:27;101994.34;;;6.11;71.19
21706;BME280;11014;53.076;18.208;2023-04-08T03:10:55;101999.84;;;6.10;71.30
21706;BME280;11014;53.076;18.208;2023-04-08T03:13:24;102001.84;;;6.08;71.54
21706;BME280;11014;53.076;18.208;2023-04-08T03:15:53;101993.00;;;6.07;71.63
21706;BME280;11014;53.076;18.208;2023-04-08T03:18:23;101993.84;;;6.08;71.39
21706;BME280;11014;53.076;18.208;2023-04-08T03:20:51;101997.19;;;6.10;71.57
21706;BME280;11014;53.076;18.208;2023-04-08T03:23:20;101993.84;;;6.08;71.65
21706;BME280;11014;53.076;18.208;2023-04-08T03:25:48;102005.50;;;6.07;71.77
21706;BME280;11014;53.076;18.208;2023-04-08T03:28:17;102010.19;;;6.05;71.75
21706;BME280;11014;53.076;18.208;2023-04-08T03:30:46;102004.84;;;6.05;71.88
21706;BME280;11014;53.076;18.208;2023-04-08T03:33:14;102006.84;;;6.03;71.75
21706;BME280;11014;53.076;18.208;2023-04-08T03:35:43;102010.50;;;6.02;71.92
21706;BME280;11014;53.076;18.208;2023-04-08T03:38:11;102017.53;;;6.03;71.75
21706;BME280;11014;53.076;18.208;2023-04-08T03:40:40;102015.00;;;6.01;71.46
21706;BME280;11014;53.076;18.208;2023-04-08T03:43:08;102017.19;;;5.97;71.49
21706;BME280;11014;53.076;18.208;2023-04-08T03:45:39;102019.34;;;5.94;71.41
21706;BME280;11014;53.076;18.208;2023-04-08T03:48:08;102026.38;;;5.87;71.40
21706;BME280;11014;53.076;18.208;2023-04-08T03:50:36;102020.31;;;5.77;71.61
21706;BME280;11014;53.076;18.208;2023-04-08T03:53:05;102023.97;;;5.68;71.40
21706;BME280;11014;53.076;18.208;2023-04-08T03:55:34;102020.47;;;5.59;71.79
21706;BME280;11014;53.076;18.208;2023-04-08T03:58:03;102025.28;;;5.56;71.80
21706;BME280;11014;53.076;18.208;2023-04-08T04:00:31;102023.78;;;5.53;71.79
21706;BME280;11014;53.076;18.208;2023-04-08T04:03:00;102027.50;;;5.76;71.29
21706;BME280;11014;53.076;18.208;2023-04-08T04:05:29;102034.47;;;5.77;70.84
21706;BME280;11014;53.076;18.208;2023-04-08T04:07:58;102034.47;;;5.77;70.52
21706;BME280;11014;53.076;18.208;2023-04-08T04:10:26;102038.16;;;5.76;70.10
21706;BME280;11014;53.076;18.208;2023-04-08T04:13:20;102038.63;;;5.72;70.29
21706;BME280;11014;53.076;18.208;2023-04-08T04:15:49;102037.97;;;5.62;70.21
21706;BME280;11014;53.076;18.208;2023-04-08T04:18:18;102041.75;;;5.43;70.48
21706;BME280;11014;53.076;18.208;2023-04-08T04:20:46;102046.25;;;5.43;70.61
21706;BME280;11014;53.076;18.208;2023-04-08T04:23:15;102050.41;;;5.45;70.58
21706;BME280;11014;53.076;18.208;2023-04-08T04:25:44;102052.41;;;5.43;70.46
21706;BME280;11014;53.076;18.208;2023-04-08T04:28:13;102055.41;;;5.40;70.50
21706;BME280;11014;53.076;18.208;2023-04-08T04:30:42;102057.41;;;5.38;70.19
21706;BME280;11014;53.076;18.208;2023-04-08T04:33:14;102066.06;;;5.40;70.33
21706;BME280;11014;53.076;18.208;2023-04-08T04:35:42;102065.22;;;5.39;70.40
21706;BME280;11014;53.076;18.208;2023-04-08T04:38:12;102061.38;;;5.42;70.32
21706;BME280;11014;53.076;18.208;2023-04-08T04:40:43;102066.22;;;5.47;70.18
21706;BME280;11014;53.076;18.208;2023-04-08T04:43:11;102078.41;;;5.49;70.06
21706;BME280;11014;53.076;18.208;2023-04-08T04:45:40;102067.41;;;5.52;70.09
21706;BME280;11014;53.076;18.208;2023-04-08T04:48:09;102076.09;;;5.54;70.22
21706;BME280;11014;53.076;18.208;2023-04-08T04:50:41;102077.44;;;5.58;70.33
21706;BME280;11014;53.076;18.208;2023-04-08T04:53:11;102070.09;;;5.60;70.79
21706;BME280;11014;53.076;18.208;2023-04-08T04:55:39;102074.44;;;5.61;70.93
21706;BME280;11014;53.076;18.208;2023-04-08T04:58:10;102083.78;;;5.65;71.25
21706;BME280;11014;53.076;18.208;2023-04-08T05:00:41;102081.94;;;5.74;71.23
21706;BME280;11014;53.076;18.208;2023-04-08T05:03:12;102085.31;;;5.76;71.14
21706;BME280;11014;53.076;18.208;2023-04-08T05:05:44;102091.13;;;5.79;71.60
21706;BME280;11014;53.076;18.208;2023-04-08T05:08:13;102096.81;;;5.76;71.77
21706;BME280;11014;53.076;18.208;2023-04-08T05:10:45;102091.13;;;5.79;71.79
21706;BME280;11014;53.076;18.208;2023-04-08T05:13:14;102094.50;;;5.81;71.72
21706;BME280;11014;53.076;18.208;2023-04-08T05:15:43;102096.16;;;5.82;72.15
21706;BME280;11014;53.076;18.208;2023-04-08T05:18:16;102102.03;;;5.86;72.20
21706;BME280;11014;53.076;18.208;2023-04-08T05:20:47;102102.53;;;5.89;71.97
21706;BME280;11014;53.076;18.208;2023-04-08T05:23:16;102101.38;;;5.92;72.10
21706;BME280;11014;53.076;18.208;2023-04-08T05:25:49;102106.88;;;5.98;72.47
21706;BME280;11014;53.076;18.208;2023-04-08T05:28:19;102101.53;;;5.98;72.09
21706;BME280;11014;53.076;18.208;2023-04-08T05:31:01;102108.22;;;6.03;72.24
21706;BME280;11014;53.076;18.208;2023-04-08T05:33:30;102113.22;;;6.06;72.43
21706;BME280;11014;53.076;18.208;2023-04-08T05:35:59;102111.56;;;6.05;72.45
21706;BME280;11014;53.076;18.208;2023-04-08T05:38:31;102127.22;;;6.08;72.39
21706;BME280;11014;53.076;18.208;2023-04-08T05:41:08;102125.59;;;6.15;72.65
21706;BME280;11014;53.076;18.208;2023-04-08T05:43:37;102129.06;;;6.23;72.67
21706;BME280;11014;53.076;18.208;2023-04-08T05:46:11;102130.09;;;6.38;72.78
21706;BME280;11014;53.076;18.208;2023-04-08T05:48:39;102134.44;;;6.47;72.58
21706;BME280;11014;53.076;18.208;2023-04-08T05:51:15;102130.63;;;6.58;72.71
21706;BME280;11014;53.076;18.208;2023-04-08T05:53:45;102137.44;;;6.69;72.81
21706;BME280;11014;53.076;18.208;2023-04-08T05:56:14;102133.59;;;6.79;72.82
21706;BME280;11014;53.076;18.208;2023-04-08T05:58:58;102136.59;;;6.84;72.67
21706;BME280;11014;53.076;18.208;2023-04-08T06:01:35;102134.72;;;6.93;73.02
21706;BME280;11014;53.076;18.208;2023-04-08T06:04:25;102139.88;;;7.02;72.90
21706;BME280;11014;53.076;18.208;2023-04-08T06:06:54;102140.88;;;7.09;73.04
21706;BME280;11014;53.076;18.208;2023-04-08T06:09:25;102148.53;;;7.21;73.61
21706;BME280;11014;53.076;18.208;2023-04-08T06:11:53;102142.97;;;7.30;73.50
21706;BME280;11014;53.076;18.208;2023-04-08T06:14:22;102144.44;;;7.41;73.77
21706;BME280;11014;53.076;18.208;2023-04-08T06:16:52;102149.75;;;7.49;74.45
21706;BME280;11014;53.076;18.208;2023-04-08T06:19:29;102157.06;;;7.63;74.55
21706;BME280;11014;53.076;18.208;2023-04-08T06:21:57;102156.03;;;7.72;74.52
21706;BME280;11014;53.076;18.208;2023-04-08T06:24:28;102160.63;;;7.86;74.98
21706;BME280;11014;53.076;18.208;2023-04-08T06:26:56;102164.56;;;7.98;75.31
21706;BME280;11014;53.076;18.208;2023-04-08T06:29:27;102165.84;;;8.10;75.26
21706;BME280;11014;53.076;18.208;2023-04-08T06:31:57;102159.06;;;8.22;75.97
21706;BME280;11014;53.076;18.208;2023-04-08T06:34:35;102155.50;;;8.38;76.03
21706;BME280;11014;53.076;18.208;2023-04-08T06:37:04;102169.94;;;8.52;75.95
21706;BME280;11014;53.076;18.208;2023-04-08T06:39:33;102170.81;;;8.67;76.81
21706;BME280;11014;53.076;18.208;2023-04-08T06:42:02;102172.69;;;8.81;76.82
21706;BME280;11014;53.076;18.208;2023-04-08T06:44:46;102175.88;;;8.99;76.92
21706;BME280;11014;53.076;18.208;2023-04-08T06:47:17;102175.06;;;9.13;76.96
21706;BME280;11014;53.076;18.208;2023-04-08T06:49:49;102172.22;;;9.29;77.41
21706;BME280;11014;53.076;18.208;2023-04-08T06:52:19;102173.69;;;9.46;77.32
21706;BME280;11014;53.076;18.208;2023-04-08T06:54:48;102173.88;;;9.60;77.41
21706;BME280;11014;53.076;18.208;2023-04-08T06:57:39;102179.88;;;9.76;77.31
21706;BME280;11014;53.076;18.208;2023-04-08T07:00:09;102188.06;;;9.89;77.66
21706;BME280;11014;53.076;18.208;2023-04-08T07:02:37;102188.94;;;10.11;77.66
21706;BME280;11014;53.076;18.208;2023-04-08T07:05:07;102195.28;;;10.39;77.97
21706;BME280;11014;53.076;18.208;2023-04-08T07:07:35;102194.53;;;10.66;77.68
21706;BME280;11014;53.076;18.208;2023-04-08T07:10:05;102201.34;;;10.90;77.85
21706;BME280;11014;53.076;18.208;2023-04-08T07:12:37;102204.44;;;11.15;77.38
21706;BME280;11014;53.076;18.208;2023-04-08T07:15:06;102212.88;;;11.33;77.33
21706;BME280;11014;53.076;18.208;2023-04-08T07:17:35;102210.47;;;11.51;76.88
21706;BME280;11014;53.076;18.208;2023-04-08T07:20:05;102212.22;;;11.65;77.09
21706;BME280;11014;53.076;18.208;2023-04-08T07:22:33;102213.16;;;11.79;76.50
21706;BME280;11014;53.076;18.208;2023-04-08T07:25:02;102220.06;;;11.95;76.80
21706;BME280;11014;53.076;18.208;2023-04-08T07:27:33;102220.34;;;12.13;76.69
21706;BME280;11014;53.076;18.208;2023-04-08T07:30:02;102212.13;;;12.34;76.62
21706;BME280;11014;53.076;18.208;2023-04-08T07:32:32;102217.13;;;12.50;76.44
21706;BME280;11014;53.076;18.208;2023-04-08T07:35:27;102226.50;;;12.67;75.78
21706;BME280;11014;53.076;18.208;2023-04-08T07:37:56;102230.84;;;12.68;75.38
21706;BME280;11014;53.076;18.208;2023-04-08T07:40:25;102232.72;;;12.74;75.81
21706;BME280;11014;53.076;18.208;2023-04-08T07:42:53;102227.13;;;12.82;75.73
21706;BME280;11014;53.076;18.208;2023-04-08T07:45:22;102227.53;;;12.92;75.78
21706;BME280;11014;53.076;18.208;2023-04-08T07:47:51;102233.16;;;12.97;75.71
21706;BME280;11014;53.076;18.208;2023-04-08T07:50:20;102228.38;;;13.06;75.37
21706;BME280;11014;53.076;18.208;2023-04-08T07:53:21;102233.00;;;13.19;74.93
21706;BME280;11014;53.076;18.208;2023-04-08T07:55:52;102235.25;;;13.28;74.73
21706;BME280;11014;53.076;18.208;2023-04-08T07:58:20;102246.25;;;13.40;73.93
21706;BME280;11014;53.076;18.208;2023-04-08T08:00:50;102244.38;;;13.47;72.81
21706;BME280;11014;53.076;18.208;2023-04-08T08:03:18;102239.56;;;13.55;72.79
21706;BME280;11014;53.076;18.208;2023-04-08T08:06:12;102251.38;;;13.74;70.79
21706;BME280;11014;53.076;18.208;2023-04-08T08:12:00;102251.53;;;13.92;68.40
21706;BME280;11014;53.076;18.208;2023-04-08T08:14:29;102247.34;;;13.96;66.68
21706;BME280;11014;53.076;18.208;2023-04-08T08:17:22;102251.06;;;14.08;65.27
21706;BME280;11014;53.076;18.208;2023-04-08T08:19:51;102260.00;;;14.09;64.00
21706;BME280;11014;53.076;18.208;2023-04-08T08:22:21;102258.16;;;14.03;62.00
21706;BME280;11014;53.076;18.208;2023-04-08T08:24:54;102262.72;;;14.02;62.05
21706;BME280;11014;53.076;18.208;2023-04-08T08:27:25;102263.53;;;14.09;61.96
21706;BME280;11014;53.076;18.208;2023-04-08T08:30:18;102267.22;;;14.21;60.60
21706;BME280;11014;53.076;18.208;2023-04-08T08:33:14;102271.75;;;14.27;59.96
21706;BME280;11014;53.076;18.208;2023-04-08T08:35:43;102272.00;;;14.19;59.57
21706;BME280;11014;53.076;18.208;2023-04-08T08:38:12;102276.38;;;14.20;59.15
21706;BME280;11014;53.076;18.208;2023-04-08T08:40:41;102275.94;;;14.23;58.43
21706;BME280;11014;53.076;18.208;2023-04-08T08:43:10;102272.59;;;14.28;58.55
21706;BME280;11014;53.076;18.208;2023-04-08T08:45:41;102283.41;;;14.35;57.76
21706;BME280;11014;53.076;18.208;2023-04-08T08:48:15;102282.94;;;14.44;58.07
21706;BME280;11014;53.076;18.208;2023-04-08T08:51:10;102271.81;;;14.65;57.96
21706;BME280;11014;53.076;18.208;2023-04-08T08:53:39;102282.44;;;14.60;56.46
21706;BME280;11014;53.076;18.208;2023-04-08T08:56:14;102282.63;;;14.65;56.04
21706;BME280;11014;53.076;18.208;2023-04-08T08:58:46;102275.34;;;14.66;55.71
21706;BME280;11014;53.076;18.208;2023-04-08T09:01:35;102281.91;;;14.83;54.10
21706;BME280;11014;53.076;18.208;2023-04-08T09:04:13;102273.94;;;14.88;54.40
21706;BME280;11014;53.076;18.208;2023-04-08T09:06:49;102281.09;;;15.07;54.61
21706;BME280;11014;53.076;18.208;2023-04-08T09:09:18;102287.41;;;15.26;54.98
21706;BME280;11014;53.076;18.208;2023-04-08T09:11:47;102293.91;;;15.43;55.28
21706;BME280;11014;53.076;18.208;2023-04-08T09:14:25;102297.09;;;15.65;54.94
21706;BME280;11014;53.076;18.208;2023-04-08T09:16:53;102287.78;;;15.79;54.25
21706;BME280;11014;53.076;18.208;2023-04-08T09:19:22;102290.63;;;15.84;52.13
21706;BME280;11014;53.076;18.208;2023-04-08T09:22:10;102279.78;;;15.84;51.70
21706;BME280;11014;53.076;18.208;2023-04-08T09:24:39;102292.91;;;15.87;53.26
21706;BME280;11014;53.076;18.208;2023-04-08T09:27:07;102299.00;;;16.00;53.67
21706;BME280;11014;53.076;18.208;2023-04-08T09:29:36;102292.13;;;16.16;53.59
21706;BME280;11014;53.076;18.208;2023-04-08T09:32:07;102303.72;;;16.23;51.29
21706;BME280;11014;53.076;18.208;2023-04-08T09:34:36;102297.56;;;16.16;51.26
21706;BME280;11014;53.076;18.208;2023-04-08T09:37:04;102302.38;;;16.14;50.69
21706;BME280;11014;53.076;18.208;2023-04-08T09:39:33;102297.88;;;16.08;51.07
21706;BME280;11014;53.076;18.208;2023-04-08T09:42:04;102292.44;;;16.08;50.92
21706;BME280;11014;53.076;18.208;2023-04-08T09:44:36;102301.63;;;16.07;51.52
21706;BME280;11014;53.076;18.208;2023-04-08T09:47:15;102290.31;;;16.10;51.23
21706;BME280;11014;53.076;18.208;2023-04-08T09:49:50;102297.94;;;16.01;50.99
21706;BME280;11014;53.076;18.208;2023-04-08T09:52:44;102296.34;;;15.94;50.01
21706;BME280;11014;53.076;18.208;2023-04-08T09:55:16;102289.25;;;15.75;49.60
21706;BME280;11014;53.076;18.208;2023-04-08T09:57:50;102294.53;;;15.70;50.65
21706;BME280;11014;53.076;18.208;2023-04-08T10:00:32;102292.25;;;15.67;50.15
21706;BME280;11014;53.076;18.208;2023-04-08T10:03:09;102289.78;;;15.65;50.03
21706;BME280;11014;53.076;18.208;2023-04-08T10:05:40;102291.66;;;15.65;48.83
21706;BME280;11014;53.076;18.208;2023-04-08T10:08:11;102284.72;;;15.69;49.10
21706;BME280;11014;53.076;18.208;2023-04-08T10:10:41;102287.84;;;15.72;49.07
21706;BME280;11014;53.076;18.208;2023-04-08T10:13:10;102279.09;;;15.70;49.36
21706;BME280;11014;53.076;18.208;2023-04-08T10:15:39;102277.22;;;15.71;50.76
21706;BME280;11014;53.076;18.208;2023-04-08T10:23:08;102274.97;;;15.68;49.73
21706;BME280;11014;53.076;18.208;2023-04-08T10:25:39;102272.03;;;15.69;49.32
21706;BME280;11014;53.076;18.208;2023-04-08T10:30:47;102273.94;;;15.87;50.67
21706;BME280;11014;53.076;18.208;2023-04-08T10:38:44;102268.84;;;16.27;52.53
21706;BME280;11014;53.076;18.208;2023-04-08T10:41:22;102263.63;;;16.43;51.28
21706;BME280;11014;53.076;18.208;2023-04-08T10:43:51;102261.38;;;16.40;50.87
21706;BME280;11014;53.076;18.208;2023-04-08T10:46:20;102265.44;;;16.49;52.23
21706;BME280;11014;53.076;18.208;2023-04-08T10:48:59;102271.28;;;16.65;49.92
21706;BME280;11014;53.076;18.208;2023-04-08T10:51:32;102271.75;;;16.62;48.58
21706;BME280;11014;53.076;18.208;2023-04-08T10:54:06;102265.50;;;16.61;47.56
21706;BME280;11014;53.076;18.208;2023-04-08T10:56:43;102266.31;;;16.62;49.39
21706;BME280;11014;53.076;18.208;2023-04-08T10:59:13;102264.22;;;16.64;50.38
21706;BME280;11014;53.076;18.208;2023-04-08T11:01:45;102261.63;;;16.69;48.78
21706;BME280;11014;53.076;18.208;2023-04-08T11:04:17;102256.34;;;16.74;48.92
21706;BME280;11014;53.076;18.208;2023-04-08T11:06:46;102257.66;;;16.83;48.48
21706;BME280;11014;53.076;18.208;2023-04-08T11:09:15;102257.47;;;16.96;48.97
21706;BME280;11014;53.076;18.208;2023-04-08T11:11:45;102255.56;;;17.08;49.99
21706;BME280;11014;53.076;18.208;2023-04-08T11:14:13;102264.09;;;17.23;47.91
21706;BME280;11014;53.076;18.208;2023-04-08T11:16:44;102254.78;;;17.31;48.12
21706;BME280;11014;53.076;18.208;2023-04-08T11:19:14;102261.75;;;17.38;46.86
21706;BME280;11014;53.076;18.208;2023-04-08T11:21:44;102259.13;;;17.43;46.24
21706;BME280;11014;53.076;18.208;2023-04-08T11:24:12;102255.38;;;17.44;45.17
21706;BME280;11014;53.076;18.208;2023-04-08T11:26:44;102255.38;;;17.44;46.22
21706;BME280;11014;53.076;18.208;2023-04-08T11:29:13;102242.84;;;17.43;44.52
21706;BME280;11014;53.076;18.208;2023-04-08T11:31:42;102253.13;;;17.53;46.41
21706;BME280;11014;53.076;18.208;2023-04-08T11:34:11;102248.31;;;17.66;47.50
21706;BME280;11014;53.076;18.208;2023-04-08T11:36:40;102256.69;;;17.76;47.97
21706;BME280;11014;53.076;18.208;2023-04-08T11:39:09;102254.41;;;17.97;46.17
21706;BME280;11014;53.076;18.208;2023-04-08T11:41:39;102241.81;;;18.19;46.13
21706;BME280;11014;53.076;18.208;2023-04-08T11:44:08;102253.06;;;18.39;46.07
21706;BME280;11014;53.076;18.208;2023-04-08T11:46:36;102252.31;;;18.55;45.58
21706;BME280;11014;53.076;18.208;2023-04-08T11:49:07;102248.72;;;18.66;46.55
21706;BME280;11014;53.076;18.208;2023-04-08T11:51:56;102241.97;;;18.85;45.08
21706;BME280;11014;53.076;18.208;2023-04-08T11:54:31;102240.44;;;18.89;42.74
21706;BME280;11014;53.076;18.208;2023-04-08T11:57:00;102238.19;;;18.86;42.71
21706;BME280;11014;53.076;18.208;2023-04-08T11:59:30;102238.78;;;18.88;42.47
21706;BME280;11014;53.076;18.208;2023-04-08T12:01:58;102239.19;;;18.97;43.37
21706;BME280;11014;53.076;18.208;2023-04-08T12:04:27;102239.53;;;19.01;43.42
21706;BME280;11014;53.076;18.208;2023-04-08T12:06:57;102248.34;;;19.08;42.71
21706;BME280;11014;53.076;18.208;2023-04-08T12:09:25;102232.91;;;19.46;43.33
21706;BME280;11014;53.076;18.208;2023-04-08T12:11:55;102242.06;;;20.65;42.32
21706;BME280;11014;53.076;18.208;2023-04-08T12:14:23;102233.19;;;22.01;39.61
21706;BME280;11014;53.076;18.208;2023-04-08T12:16:55;102228.75;;;23.22;37.18
21706;BME280;11014;53.076;18.208;2023-04-08T12:19:24;102232.31;;;24.22;36.67
21706;BME280;11014;53.076;18.208;2023-04-08T12:21:54;102226.06;;;25.23;35.18
21706;BME280;11014;53.076;18.208;2023-04-08T12:24:23;102223.59;;;26.40;33.01
21706;BME280;11014;53.076;18.208;2023-04-08T12:26:52;102218.09;;;27.55;30.70
21706;BME280;11014;53.076;18.208;2023-04-08T12:29:20;102215.31;;;28.46;28.99
21706;BME280;11014;53.076;18.208;2023-04-08T12:31:49;102214.50;;;29.34;29.18
21706;BME280;11014;53.076;18.208;2023-04-08T12:34:44;102206.63;;;30.15;27.47
21706;BME280;11014;53.076;18.208;2023-04-08T12:37:12;102212.19;;;30.58;26.59
21706;BME280;11014;53.076;18.208;2023-04-08T12:39:41;102194.06;;;31.03;26.19
21706;BME280;11014;53.076;18.208;2023-04-08T12:42:09;102204.06;;;31.33;23.57
21706;BME280;11014;53.076;18.208;2023-04-08T12:45:03;102190.72;;;31.94;24.81
21706;BME280;11014;53.076;18.208;2023-04-08T12:47:33;102199.03;;;32.23;24.01
21706;BME280;11014;53.076;18.208;2023-04-08T12:50:02;102201.28;;;32.30;23.70
21706;BME280;11014;53.076;18.208;2023-04-08T12:52:31;102203.63;;;32.60;23.07
21706;BME280;11014;53.076;18.208;2023-04-08T12:55:00;102196.16;;;33.06;22.54
21706;BME280;11014;53.076;18.208;2023-04-08T12:57:29;102199.69;;;33.27;21.49
21706;BME280;11014;53.076;18.208;2023-04-08T12:59:59;102202.47;;;33.39;20.97
21706;BME280;11014;53.076;18.208;2023-04-08T13:02:27;102190.38;;;33.11;20.60
21706;BME280;11014;53.076;18.208;2023-04-08T13:04:56;102187.38;;;33.28;22.17
21706;BME280;11014;53.076;18.208;2023-04-08T13:07:28;102182.06;;;33.71;20.94
21706;BME280;11014;53.076;18.208;2023-04-08T13:09:56;102186.09;;;33.98;21.04
21706;BME280;11014;53.076;18.208;2023-04-08T13:12:25;102179.88;;;34.29;19.50
21706;BME280;11014;53.076;18.208;2023-04-08T13:14:54;102186.25;;;34.29;19.24
21706;BME280;11014;53.076;18.208;2023-04-08T13:17:23;102180.22;;;34.67;19.42
21706;BME280;11014;53.076;18.208;2023-04-08T13:19:53;102181.50;;;34.85;20.73
21706;BME280;11014;53.076;18.208;2023-04-08T13:22:22;102173.56;;;34.87;19.60
21706;BME280;11014;53.076;18.208;2023-04-08T13:24:50;102185.41;;;34.96;19.51
21706;BME280;11014;53.076;18.208;2023-04-08T13:27:19;102178.31;;;35.15;18.86